Latest Coastal Weather Observations for Maatsuyker Island

IDT60701

Issued at 12:55 pm EST Monday 21 April 2014 (issued every 10 minutes, with the page automatically refreshed every 10 minutes)

About coastal observations | Map of coastal stations | Coastal observations for TAS | Marine services | Other Formats
Station Details ID: 094041 Name: MAATSUYKER ISLAND LIGHTHOUSE Lat: -43.66 Lon: 146.27 Height: 146.5 m
Data from the previous 72 hours. | See also: Recent months at Maatsuyker Island
Date/Time
EST
Temp

°C
Wind Pressure Rain
since 9am
mm
Weather Cloud Vis
km
Sea
Height
m
Swell
Dir
 
Speed
knots
Gust
knots
hPa Trend Height
m
Period
s
Dir
21/12:30pm 10.8 NNW 6 7 1015.3 - 0.0 - - - - - - -
21/12:00pm 10.8 N 7 9 1016.0 - 0.0 - - - - - - -
21/11:30am 10.7 N 8 11 1016.2 - 0.0 - - - - - - -
21/11:00am 10.2 N 8 11 1016.6 - 0.0 - - - - - - -
21/10:30am 9.8 N 8 11 1016.8 - 0.0 - - - - - - -
21/10:00am 9.6 N 7 11 1017.1 - 0.0 - - - - - - -
21/09:30am 9.8 N 6 9 1017.2 - 0.0 - - - - - - -
21/09:00am 9.2 NW 4 9 1017.5 F 3.2 Distant precip. Mostly cloudy 20 <0.5 4.5 14 SW
21/08:30am 9.2 N 8 13 1017.5 - 3.2 - - - - - - -
21/08:00am 8.8 N 8 11 1017.4 - 3.2 - - - - - - -
21/07:30am 9.0 NNW 8 11 1017.1 - 3.2 - - - - - - -
21/07:00am 8.7 N 7 10 1017.0 - 3.2 - - - - - - -
21/06:30am 9.3 NNW 9 12 1016.8 - 3.2 - - - - - - -
21/06:00am 9.3 NNW 6 12 1016.6 R 3.2 Distant precip. Partly cloudy 30 <0.5 4.0 13 SW
21/05:30am 9.3 NNW 10 15 1016.5 - 3.2 - - - - - - -
21/05:00am 9.3 WNW 14 18 1016.4 - 3.2 - - - - - - -
21/04:30am 9.6 NW 15 19 1015.9 - 3.2 - - - - - - -
21/04:00am 9.2 NW 15 21 1015.6 - 3.2 - - - - - - -
21/03:30am 9.3 WNW 18 22 1015.6 - 3.2 - - - - - - -
21/03:00am 9.3 NW 20 24 1015.6 - 3.2 - - - - - - -
21/02:30am 9.3 WNW 19 22 1015.7 - 3.2 - - - - - - -
21/02:00am 9.5 WNW 23 27 1015.4 - 3.2 - - - - - - -
21/01:30am 9.5 WNW 23 27 1015.5 - 3.2 - - - - - - -
21/01:00am 9.5 WNW 21 25 1015.2 - 3.2 - - - - - - -
21/12:30am 9.6 WNW 22 26 1014.9 - 3.2 - - - - - - -
21/12:00am 9.7 WNW 21 25 1014.7 - 3.2 - - - - - - -
 
Date/Time
EST
Temp

°C
Wind Pressure Rain
since 9am
mm
Weather Cloud Vis
km
Sea
Height
m
Swell
Dir
 
Speed
knots
Gust
knots
hPa Trend Height
m
Period
s
Dir
20/11:30pm 9.6 WNW 22 27 1014.4 - 3.2 - - - - - - -
20/11:00pm 9.6 WNW 19 26 1014.4 - 3.2 - - - - - - -
20/10:30pm 9.7 WNW 24 29 1014.3 - 3.2 - - - - - - -
20/10:00pm 9.7 WNW 27 33 1014.2 - 3.2 - - - - - - -
20/09:30pm 9.7 WNW 21 25 1014.2 - 3.2 - - - - - - -
20/09:00pm 9.8 WNW 24 28 1013.8 - 3.2 - - - - - - -
20/08:30pm 10.0 WNW 28 32 1013.1 - 3.2 - - - - - - -
20/08:00pm 9.8 WNW 27 32 1013.0 - 3.2 - - - - - - -
20/07:30pm 9.9 WNW 24 31 1013.0 - 3.2 - - - - - - -
20/07:00pm 10.1 WNW 26 33 1012.6 - 3.2 - - - - - - -
20/06:30pm 10.1 WNW 30 36 1011.7 - 3.2 - - - - - - -
20/06:00pm 9.8 WNW 27 33 1011.7 - 3.2 - - - - - - -
20/05:30pm 10.5 WNW 26 33 1011.1 - 3.2 - - - - - - -
20/05:00pm 10.6 WNW 28 35 1010.2 - 3.2 - - - - - - -
20/04:30pm 10.8 WNW 29 35 1010.1 - 3.2 - - - - - - -
20/04:00pm 10.8 WNW 32 38 1009.0 - 3.2 - - - - - - -
20/03:38pm 10.7 WNW 29 39 1009.1 - 3.2 - - - - - - -
20/03:30pm 11.1 WNW 34 41 1008.9 - 3.2 - - - - - - -
20/03:00pm 11.2 NW 24 35 1008.3 R 3.2 Distant precip. Mostly cloudy 10 3 4.0 14 SW
20/02:53pm 10.9 W 27 37 1008.6 - 3.2 - - - - - - -
20/02:30pm 11.1 WNW 35 41 1007.4 - 3.2 - - - - - - -
20/02:00pm 11.1 WNW 34 41 1007.1 - 3.2 - - - - - - -
20/01:30pm 10.7 NW 38 44 1006.3 - 3.2 - - - - - - -
20/01:00pm 11.0 NW 34 40 1005.4 - 3.0 - - - - - - -
20/12:30pm 12.2 NW 43 50 1004.8 - 2.0 - - - - - - -
20/12:00pm 12.7 NNW 40 50 1004.8 - 1.6 - - - - - - -
20/11:37am 12.8 NNW 33 45 1004.9 - 1.2 - - - - - - -
20/11:30am 13.0 NNW 32 41 1005.4 - 1.2 - - - - - - -
20/11:21am 12.8 NNW 32 40 1005.6 - 1.2 - - - - - - -
20/11:05am 12.2 NNW 22 33 1006.1 - 1.2 - - - - - - -
20/11:00am 11.9 NNW 22 27 1006.6 - 1.2 - - - - - - -
20/10:30am 11.8 NNW 22 27 1006.9 - 0.8 - - - - - - -
20/10:00am 11.5 NNW 24 29 1007.0 - 0.2 - - - - - - -
20/09:30am 11.2 NNW 23 30 1007.3 - 0.0 - - - - - - -
20/09:00am 11.1 NW 16 28 1007.4 F 1.0 Rain Cloudy 14 1 3.5 14 SW
20/08:30am 10.4 NNW 23 31 1007.7 - 1.0 - - - - - - -
20/08:00am 10.2 NNW 22 29 1007.9 - 1.0 - - - - - - -
20/07:30am 9.8 NNW 21 28 1008.1 - 0.8 - - - - - - -
20/07:00am 10.1 NNW 22 27 1008.1 - 0.6 - - - - - - -
20/06:30am 10.4 NNW 23 29 1008.2 - 0.6 - - - - - - -
20/06:00am 10.0 NW 20 28 1008.3 F 0.6 Distant precip. Partly cloudy 20 2 3.5 14 SW
20/05:30am 10.0 NNW 23 29 1008.4 - 0.6 - - - - - - -
20/05:00am 9.6 NNW 22 29 1008.5 - 0.6 - - - - - - -
20/04:30am 9.8 NNW 21 28 1008.7 - 0.6 - - - - - - -
20/04:00am 9.7 NNW 21 27 1008.8 - 0.6 - - - - - - -
20/03:30am 9.6 NNW 18 26 1009.3 - 0.6 - - - - - - -
20/03:00am 9.4 NNW 19 27 1009.7 - 0.6 - - - - - - -
20/02:30am 9.6 NNW 17 23 1010.1 - 0.6 - - - - - - -
20/02:00am 9.7 NNW 18 25 1010.6 - 0.6 - - - - - - -
20/01:30am 9.5 NNW 18 24 1011.1 - 0.6 - - - - - - -
20/01:00am 9.6 NNW 18 24 1011.4 - 0.6 - - - - - - -
20/12:30am 9.9 NNW 17 22 1011.8 - 0.6 - - - - - - -
20/12:00am 9.9 NNW 17 22 1011.9 - 0.6 - - - - - - -
 
Date/Time
EST
Temp

°C
Wind Pressure Rain
since 9am
mm
Weather Cloud Vis
km
Sea
Height
m
Swell
Dir
 
Speed
knots
Gust
knots
hPa Trend Height
m
Period
s
Dir
19/11:30pm 9.6 NNW 18 23 1012.2 - 0.6 - - - - - - -
19/11:00pm 9.7 NNW 15 19 1012.6 - 0.6 - - - - - - -
19/10:30pm 9.6 NNW 15 20 1013.0 - 0.6 - - - - - - -
19/10:00pm 9.5 NNW 13 17 1013.6 - 0.6 - - - - - - -
19/09:30pm 9.7 N 14 18 1013.7 - 0.6 - - - - - - -
19/09:25pm 9.6 N 14 18 1013.7 - 0.6 - - - - - - -
19/09:00pm 9.9 NW 20 25 1013.6 - 0.6 - - - - - - -
19/08:30pm 9.4 NNW 21 31 1013.8 - 0.6 - - - - - - -
19/08:29pm 9.3 NNW 23 31 1013.7 - 0.6 - - - - - - -
19/08:02pm 10.0 WNW 21 33 1013.9 - 0.6 - - - - - - -
19/08:00pm 9.7 WNW 20 24 1014.1 - 0.6 - - - - - - -
19/07:30pm 10.3 NW 23 27 1014.0 - 0.6 - - - - - - -
19/07:00pm 9.9 NW 23 27 1014.1 - 0.6 - - - - - - -
19/06:30pm 9.8 NW 23 27 1014.1 - 0.6 - - - - - - -
19/06:00pm 9.1 NNW 23 29 1014.2 - 0.6 - - - - - - -
19/05:30pm 10.2 NW 24 28 1014.1 - 0.4 - - - - - - -
19/05:00pm 10.1 WNW 18 22 1014.4 - 0.4 - - - - - - -
19/04:30pm 9.9 WNW 19 23 1014.7 - 0.4 - - - - - - -
19/04:00pm 10.3 WNW 19 23 1014.5 - 0.4 - - - - - - -
19/03:30pm 10.1 WNW 19 23 1014.8 - 0.4 - - - - - - -
19/03:00pm 9.9 WNW 12 19 1015.1 F 0.4 Distant precip. Mostly cloudy 20 1 5.0 16 SW
19/02:30pm 10.3 WNW 18 23 1015.1 - 0.4 - - - - - - -
19/02:00pm 9.2 WNW 19 22 1015.2 - 0.4 - - - - - - -
19/01:30pm 8.6 NW 26 32 1015.0 - 0.4 - - - - - - -
19/01:24pm 9.3 WNW 20 30 1015.1 - 0.2 - - - - - - -
19/01:00pm 10.8 WNW 16 21 1015.4 - 0.0 - - - - - - -
19/12:30pm 10.1 W 14 18 1016.0 - 0.0 - - - - - - -
19/12:00pm 9.8 WSW 13 19 1016.4 - 0.0 - - - - - - -
19/11:30am 8.9 WNW 18 22 1016.5 - 0.0 - - - - - - -
19/11:00am 10.4 WNW 11 15 1016.4 - 0.0 - - - - - - -
19/10:30am 10.3 WNW 13 17 1016.4 - 0.0 - - - - - - -
19/10:00am 9.2 SW 13 19 1016.6 - 0.0 - - - - - - -
19/09:30am 10.3 W 12 17 1016.4 - 0.0 - - - - - - -
19/09:00am 10.1 WSW 12 16 1016.3 R 3.8 Distant precip. Mostly cloudy 25 1 5.0 16 SW
19/08:30am 9.8 SW 15 21 1016.2 - 3.8 - - - - - - -
19/08:00am 9.6 WSW 15 20 1016.0 - 3.8 - - - - - - -
19/07:30am 9.6 SW 14 22 1015.7 - 3.8 - - - - - - -
19/07:00am 9.6 SW 17 23 1015.6 - 3.8 - - - - - - -
19/06:30am 9.7 WSW 16 22 1015.4 - 3.8 - - - - - - -
19/06:00am 9.5 WSW 15 25 1015.4 R 3.8 Fine Partly cloudy 30 1 5.0 13 SW
19/05:30am 9.8 WSW 17 23 1015.1 - 3.8 - - - - - - -
19/05:00am 9.8 WSW 17 23 1014.9 - 3.8 - - - - - - -
19/04:30am 9.6 WSW 18 24 1014.8 - 3.8 - - - - - - -
19/04:00am 9.8 SW 17 24 1014.5 - 3.8 - - - - - - -
19/03:30am 9.9 WSW 16 23 1014.5 - 3.8 - - - - - - -
19/03:00am 10.0 W 16 25 1014.5 - 3.8 - - - - - - -
19/02:58am 10.0 W 15 25 1014.5 - 3.8 - - - - - - -
19/02:30am 9.8 WSW 18 25 1014.5 - 3.8 - - - - - - -
19/02:00am 10.1 SW 18 24 1014.4 - 3.8 - - - - - - -
19/01:42am 10.0 WSW 21 25 1014.5 - 3.8 - - - - - - -
19/01:30am 9.9 W 18 24 1014.5 - 3.8 - - - - - - -
19/01:00am 9.9 WSW 19 26 1014.3 - 3.8 - - - - - - -
19/12:30am 9.7 W 16 27 1014.4 - 3.8 - - - - - - -
19/12:13am 10.1 W 17 27 1014.3 - 3.8 - - - - - - -
19/12:00am 9.9 W 20 24 1014.3 - 3.8 - - - - - - -
 
Date/Time
EST
Temp

°C
Wind Pressure Rain
since 9am
mm
Weather Cloud Vis
km
Sea
Height
m
Swell
Dir
 
Speed
knots
Gust
knots
hPa Trend Height
m
Period
s
Dir
18/11:35pm 9.8 W 24 30 1014.3 - 3.8 - - - - - - -
18/11:30pm 9.8 WSW 18 27 1014.4 - 3.8 - - - - - - -
18/11:00pm 9.6 WSW 20 27 1014.3 - 3.8 - - - - - - -
18/10:30pm 9.4 WSW 20 27 1014.3 - 3.8 - - - - - - -
18/10:00pm 9.3 W 18 28 1014.4 - 3.4 - - - - - - -
18/09:31pm 9.3 WSW 20 31 1014.3 - 3.2 - - - - - - -
18/09:30pm 9.8 WSW 19 28 1014.2 - 3.2 - - - - - - -
18/09:25pm 9.9 SW 19 32 1014.0 - 3.2 - - - - - - -
18/09:20pm 9.8 SW 23 32 1014.0 - 3.2 - - - - - - -
18/09:16pm 10.4 W 19 32 1014.0 - 3.2 - - - - - - -
18/09:00pm 10.2 W 18 26 1013.8 - 3.2 - - - - - - -
18/08:49pm 9.7 W 18 29 1013.8 - 3.2 - - - - - - -
18/08:37pm 10.8 SW 22 30 1013.6 - 3.0 - - - - - - -
18/08:35pm 10.8 W 19 30 1013.5 - 3.0 - - - - - - -
18/08:30pm 10.3 W 20 27 1013.4 - 3.0 - - - - - - -
18/08:22pm 10.6 W 21 29 1013.4 - 3.0 - - - - - - -
18/08:00pm 10.7 WSW 21 30 1013.2 - 3.0 - - - - - - -
18/07:51pm 10.8 WSW 19 30 1013.1 - 3.0 - - - - - - -
18/07:30pm 11.0 W 21 27 1012.8 - 3.0 - - - - - - -
18/07:00pm 10.8 W 20 27 1012.5 - 3.0 - - - - - - -
18/06:30pm 10.2 W 21 26 1012.4 - 3.0 - - - - - - -
18/06:10pm 10.5 W 22 33 1012.2 - 3.0 - - - - - - -
18/06:00pm 9.9 W 20 27 1012.0 - 3.0 - - - - - - -
18/05:30pm 9.9 W 23 33 1011.4 - 3.0 - - - - - - -
18/05:26pm 10.5 W 19 31 1011.4 - 2.8 - - - - - - -
18/05:00pm 11.1 WNW 28 33 1010.7 - 2.8 - - - - - - -
18/04:30pm 11.3 WNW 27 33 1010.5 - 2.8 - - - - - - -
18/04:05pm 11.7 WNW 28 38 1009.4 - 2.8 - - - - - - -
18/04:00pm 11.2 WNW 26 31 1009.7 - 2.8 - - - - - - -
18/03:56pm 10.6 WNW 26 36 1009.8 - 2.8 - - - - - - -
18/03:30pm 11.8 WNW 29 35 1009.8 - 2.8 - - - - - - -
18/03:00pm 12.4 WNW 22 33 1009.6 R 2.8 Distant precip. Mostly cloudy 15 3 4.5 13 SW
18/02:30pm 11.8 WNW 25 31 1009.5 - 2.8 - - - - - - -
18/02:00pm 11.5 WNW 30 35 1009.0 - 2.8 - - - - - - -
18/01:30pm 12.2 WNW 27 34 1008.4 - 2.8 - - - - - - -
18/01:00pm 11.9 WNW 29 35 1008.4 - 2.8 - - - - - - -

Other Formats:

Comma delimited format used in spreadsheet applications
http://www.bom.gov.au/fwo/IDT60701/IDT60701.94962.axf

JavaScript Object Notation format (JSON) in row-major order
http://www.bom.gov.au/fwo/IDT60701/IDT60701.94962.json